Time;durP1;ratioP1;P1;durP2;ratioP2;P2;SDS_P1;SDS_P2;PMS_P1;PMS_P2;Temp;Humidity;BMP_temperature;BMP_pressure;BME280_temperature;BME280_humidity;BME280_pressure;Samples;Min_cycle;Max_cycle;Signal;HPM_P1;HPM_P2
2022/08/28 00:00:12;;;;;;;8.28;4.92;;;;;;;21.39;100.00;97808.89;1784277;79;28100;-89
2022/08/28 00:02:54;;;;;;;6.92;5.33;;;;;;;21.38;100.00;97808.61;1792440;78;28037;-91
2022/08/28 00:05:30;;;;;;;9.83;5.33;;;;;;;21.35;100.00;97810.30;1787773;79;28023;-89
2022/08/28 00:07:58;;;;;;;9.28;4.90;;;;;;;21.31;100.00;97803.72;1784067;78;28013;-89
2022/08/28 00:10:28;;;;;;;9.45;5.15;;;;;;;21.25;100.00;97804.47;1781801;79;28076;-90
2022/08/28 00:13:07;;;;;;;7.00;4.70;;;;;;;21.16;100.00;97801.13;1790752;79;28158;-89
2022/08/28 00:15:39;;;;;;;7.50;5.08;;;;;;;21.06;100.00;97807.20;1786297;79;28053;-90
2022/08/28 00:18:11;;;;;;;10.53;5.15;;;;;;;21.00;100.00;97803.95;1789029;79;28068;-89
2022/08/28 00:20:38;;;;;;;;;;;;;;;20.93;100.00;97805.74;1797678;79;28077;-90
2022/08/28 00:23:08;;;;;;;7.67;5.35;;;;;;;20.89;100.00;97814.58;1793144;79;22587;-90
2022/08/28 00:26:00;;;;;;;7.65;4.95;;;;;;;20.82;100.00;97809.72;1790917;78;28065;-90
2022/08/28 00:28:31;;;;;;;;;;;;;;;20.81;100.00;97810.72;1793932;79;28089;-90
2022/08/28 00:31:04;;;;;;;8.60;5.40;;;;;;;20.78;100.00;97807.09;1789472;79;20489;-91
2022/08/28 00:33:35;;;;;;;9.60;5.28;;;;;;;20.77;100.00;97801.97;1791591;79;28152;-89
2022/08/28 00:36:04;;;;;;;9.03;4.75;;;;;;;20.75;100.00;97802.66;1760102;79;36513;-89
2022/08/28 00:38:44;;;;;;;9.65;5.45;;;;;;;20.73;100.00;97796.19;1781878;79;28037;-90
2022/08/28 00:41:19;;;;;;;10.85;5.40;;;;;;;20.72;100.00;97789.24;1785087;79;28069;-89
2022/08/28 00:43:53;;;;;;;7.67;5.22;;;;;;;20.70;100.00;97790.42;1783985;79;28124;-89
2022/08/28 00:46:24;;;;;;;9.40;5.53;;;;;;;20.65;100.00;97792.31;1777436;79;28068;-89
2022/08/28 00:48:51;;;;;;;10.15;6.33;;;;;;;20.59;100.00;97790.91;1792813;79;28056;-88
2022/08/28 00:54:12;;;;;;;13.90;5.45;;;;;;;20.51;100.00;97795.80;1785924;79;27985;-89
2022/08/28 00:56:52;;;;;;;9.50;5.35;;;;;;;20.46;100.00;97795.53;1791465;78;28100;-89
2022/08/28 00:59:22;;;;;;;12.35;5.35;;;;;;;20.41;100.00;97799.26;1789986;77;28108;-88
2022/08/28 01:01:56;;;;;;;8.43;5.65;;;;;;;20.35;100.00;97792.02;1784685;78;28144;-89
2022/08/28 01:04:31;;;;;;;9.78;5.22;;;;;;;20.32;100.00;97794.55;1789907;79;28076;-89
2022/08/28 01:06:56;;;;;;;7.33;4.45;;;;;;;20.29;100.00;97798.06;1787918;79;28162;-88
2022/08/28 01:09:27;;;;;;;8.85;5.67;;;;;;;20.25;100.00;97795.42;1789241;78;28134;-89
2022/08/28 01:12:09;;;;;;;9.18;5.08;;;;;;;20.18;100.00;97795.36;1789411;79;28092;-89
2022/08/28 01:14:42;;;;;;;8.55;5.33;;;;;;;20.22;100.00;97799.30;1782181;79;28173;-89
2022/08/28 01:17:10;;;;;;;9.68;5.53;;;;;;;20.24;100.00;97800.41;1792698;78;28076;-89
2022/08/28 01:19:55;;;;;;;10.53;5.67;;;;;;;20.21;100.00;97797.64;1786461;79;28075;-89
2022/08/28 01:22:21;;;;;;;10.18;5.62;;;;;;;20.20;100.00;97801.80;1779390;78;28101;-89
2022/08/28 01:24:59;;;;;;;9.53;5.42;;;;;;;20.16;100.00;97804.00;1791076;79;28026;-89
2022/08/28 01:27:27;;;;;;;7.75;5.40;;;;;;;20.16;100.00;97809.32;1785587;79;28057;-89
2022/08/28 01:29:57;;;;;;;10.68;5.15;;;;;;;20.12;100.00;97817.34;1786545;79;28081;-88
2022/08/28 01:32:31;;;;;;;8.85;5.30;;;;;;;20.09;100.00;97817.69;1786019;78;28045;-88
2022/08/28 01:35:08;;;;;;;11.50;5.40;;;;;;;20.06;100.00;97816.73;1787717;78;28166;-89
2022/08/28 01:37:43;;;;;;;7.97;5.37;;;;;;;20.05;100.00;97821.72;1791235;79;28065;-89
2022/08/28 01:40:13;;;;;;;10.75;4.87;;;;;;;20.05;100.00;97816.41;1780811;79;28077;-90
2022/08/28 01:42:45;;;;;;;7.45;4.80;;;;;;;20.06;100.00;97819.39;1783450;79;28128;-90
2022/08/28 01:45:13;;;;;;;;;;;;;;;20.06;100.00;97818.06;1788103;79;28041;-89
2022/08/28 01:48:04;;;;;;;9.23;6.00;;;;;;;20.04;100.00;97824.05;1781565;79;20186;-90
2022/08/28 01:50:42;;;;;;;9.93;5.53;;;;;;;20.00;100.00;97830.24;1789696;79;28092;-89
2022/08/28 01:53:19;;;;;;;8.03;5.33;;;;;;;19.98;100.00;97829.59;1754607;81;28102;-90
2022/08/28 01:55:52;;;;;;;11.57;6.35;;;;;;;19.93;100.00;97832.46;1757270;81;28075;-90
2022/08/28 01:58:35;;;;;;;8.90;5.47;;;;;;;19.94;100.00;97836.77;1774118;78;28081;-90
2022/08/28 02:01:12;;;;;;;8.55;5.30;;;;;;;19.93;100.00;97836.45;1812155;78;28074;-90
2022/08/28 02:03:38;;;;;;;11.57;6.03;;;;;;;19.90;100.00;97829.68;1814195;78;28031;-90
2022/08/28 02:06:05;;;;;;;11.65;5.75;;;;;;;19.86;100.00;97826.21;1815358;78;28159;-90
2022/08/28 02:08:38;;;;;;;10.03;6.00;;;;;;;19.86;100.00;97830.20;1814045;78;28072;-89
2022/08/28 02:11:12;;;;;;;8.50;5.58;;;;;;;19.84;100.00;97822.43;1814049;77;28191;-89
2022/08/28 02:13:39;;;;;;;11.03;5.67;;;;;;;19.84;100.00;97825.09;1810463;78;28144;-89
2022/08/28 02:16:08;;;;;;;7.53;5.65;;;;;;;19.86;100.00;97822.23;1814685;78;28066;-90
2022/08/28 02:18:43;;;;;;;11.12;5.72;;;;;;;19.91;100.00;97829.18;1812566;78;28045;-90
2022/08/28 02:21:17;;;;;;;10.23;5.87;;;;;;;19.92;100.00;97834.79;1812103;78;28061;-89
2022/08/28 02:23:54;;;;;;;11.15;6.45;;;;;;;19.91;100.00;97831.30;1818488;78;28083;-90
2022/08/28 02:26:20;;;;;;;9.95;5.75;;;;;;;19.90;100.00;97826.20;1825751;78;28093;-89
2022/08/28 02:28:50;;;;;;;8.83;5.45;;;;;;;19.89;100.00;97832.01;1814501;77;28030;-89
2022/08/28 02:31:17;;;;;;;8.90;5.15;;;;;;;19.85;100.00;97827.24;1812986;77;28070;-89
2022/08/28 02:33:45;;;;;;;9.60;5.35;;;;;;;19.82;100.00;97827.58;1811798;78;28054;-89
2022/08/28 02:36:18;;;;;;;8.00;5.70;;;;;;;19.78;100.00;97819.66;1812523;78;28093;-89
2022/08/28 02:38:54;;;;;;;9.88;5.42;;;;;;;19.77;100.00;97812.70;1810841;78;28141;-89
2022/08/28 02:41:20;;;;;;;7.37;5.05;;;;;;;19.77;100.00;97814.85;1821172;77;28022;-90
2022/08/28 02:43:48;;;;;;;8.73;5.22;;;;;;;19.79;100.00;97812.86;1809402;78;28069;-90
2022/08/28 02:46:14;;;;;;;8.25;5.50;;;;;;;19.79;100.00;97806.22;1813583;77;28049;-89
2022/08/28 02:48:41;;;;;;;10.25;5.22;;;;;;;19.80;100.00;97810.50;1808344;78;28015;-89
2022/08/28 02:51:13;;;;;;;11.38;5.62;;;;;;;19.80;100.00;97815.01;1817876;78;28121;-90
2022/08/28 02:53:41;;;;;;;7.55;4.97;;;;;;;19.76;100.00;97817.18;1808398;78;28158;-90
2022/08/28 02:56:15;;;;;;;7.03;4.53;;;;;;;19.72;100.00;97819.88;1823117;77;28092;-90
2022/08/28 02:58:49;;;;;;;9.80;6.40;;;;;;;19.67;100.00;97824.91;1819215;77;27985;-90
2022/08/28 03:01:17;;;;;;;8.70;4.67;;;;;;;19.65;100.00;97832.21;1802085;78;28065;-89
2022/08/28 03:03:50;;;;;;;9.70;5.87;;;;;;;19.62;100.00;97830.75;1812091;78;28058;-90
2022/08/28 03:06:35;;;;;;;10.30;4.65;;;;;;;19.59;100.00;97839.05;1802348;78;28486;-89
2022/08/28 03:09:11;;;;;;;10.20;5.15;;;;;;;19.59;100.00;97843.04;1804754;78;27997;-90
2022/08/28 03:11:40;;;;;;;11.48;5.30;;;;;;;19.55;100.00;97843.08;1813286;78;28050;-91
2022/08/28 03:14:11;;;;;;;11.50;5.67;;;;;;;19.55;100.00;97852.37;1805758;78;28168;-90
2022/08/28 03:16:37;;;;;;;11.28;5.80;;;;;;;19.53;100.00;97846.90;1811695;78;28061;-90
2022/08/28 03:19:09;;;;;;;8.63;5.00;;;;;;;19.54;100.00;97850.71;1810709;78;28064;-90
2022/08/28 03:21:40;;;;;;;10.95;6.00;;;;;;;19.52;100.00;97854.06;1812307;78;28050;-89
2022/08/28 03:24:06;;;;;;;12.33;5.85;;;;;;;19.50;100.00;97857.39;1808645;78;28143;-89
2022/08/28 03:26:33;;;;;;;11.15;5.20;;;;;;;19.53;100.00;97853.53;1812285;76;28514;-89
2022/08/28 03:28:59;;;;;;;9.18;5.12;;;;;;;19.53;100.00;97858.34;1806093;78;28096;-89
2022/08/28 03:31:32;;;;;;;7.42;4.95;;;;;;;19.50;100.00;97851.25;1808850;78;28053;-89
2022/08/28 03:34:06;;;;;;;8.85;4.78;;;;;;;19.53;100.00;97852.20;1805579;78;28075;-89
2022/08/28 03:36:33;;;;;;;11.08;4.75;;;;;;;19.52;100.00;97852.73;1808313;78;28077;-89
2022/08/28 03:39:03;;;;;;;10.95;4.95;;;;;;;19.51;100.00;97858.22;1814094;78;28156;-89
2022/08/28 03:41:35;;;;;;;8.88;4.45;;;;;;;19.49;100.00;97869.00;1804539;78;28064;-89
2022/08/28 03:44:02;;;;;;;7.03;4.92;;;;;;;19.44;100.00;97866.02;1813419;78;28085;-89
2022/08/28 03:46:31;;;;;;;6.30;4.60;;;;;;;19.43;100.00;97877.63;1803867;78;28162;-89
2022/08/28 03:49:01;;;;;;;10.53;5.08;;;;;;;19.39;100.00;97883.47;1808753;78;28184;-89
2022/08/28 03:51:34;;;;;;;8.88;4.70;;;;;;;19.40;100.00;97890.44;1807397;78;28065;-88
2022/08/28 03:54:01;;;;;;;5.62;4.03;;;;;;;19.42;100.00;97882.61;1810557;77;28094;-89
2022/08/28 03:56:29;;;;;;;7.97;4.47;;;;;;;19.45;100.00;97888.11;1807195;78;28015;-88
2022/08/28 03:59:00;;;;;;;8.15;4.37;;;;;;;19.47;100.00;97888.28;1809870;77;28062;-90
2022/08/28 04:01:37;;;;;;;7.40;4.60;;;;;;;19.51;100.00;97884.26;1804408;77;28083;-89
2022/08/28 04:07:43;;;;;;;9.40;4.67;;;;;;;19.53;100.00;97881.41;1802748;78;28014;-90
2022/08/28 04:10:19;;;;;;;7.35;3.95;;;;;;;19.57;100.00;97880.90;1812462;78;28087;-90
2022/08/28 04:12:47;;;;;;;7.50;4.90;;;;;;;19.56;100.00;97881.07;1819668;78;28070;-90
2022/08/28 04:15:21;;;;;;;6.83;4.00;;;;;;;19.58;100.00;97882.53;1811754;77;28139;-90
2022/08/28 04:18:07;;;;;;;6.28;4.35;;;;;;;19.62;100.00;97883.84;1811392;78;28054;-89
2022/08/28 04:20:35;;;;;;;6.83;4.20;;;;;;;19.68;100.00;97878.83;1811644;78;28124;-88
2022/08/28 04:23:14;;;;;;;8.95;4.95;;;;;;;19.73;100.00;97889.24;1811020;78;28115;-89
2022/08/28 04:25:46;;;;;;;11.55;4.20;;;;;;;19.79;100.00;97892.52;1815122;78;28005;-90
2022/08/28 04:28:17;;;;;;;9.53;4.60;;;;;;;19.81;100.00;97883.02;1807194;78;28143;-89
2022/08/28 04:30:46;;;;;;;6.12;4.75;;;;;;;19.81;100.00;97883.02;1805850;77;28078;-89
2022/08/28 04:33:20;;;;;;;13.18;4.60;;;;;;;19.86;100.00;97887.29;1809390;77;28101;-89
2022/08/28 04:35:50;;;;;;;6.72;4.35;;;;;;;19.92;100.00;97894.55;1822023;77;28046;-89
2022/08/28 04:38:20;;;;;;;10.53;4.80;;;;;;;19.91;100.00;97892.39;1818511;77;28195;-89
2022/08/28 04:40:56;;;;;;;7.42;4.92;;;;;;;19.92;100.00;97894.05;1813402;77;28059;-89
2022/08/28 04:43:20;;;;;;;4.53;3.87;;;;;;;19.95;100.00;97898.19;1817495;78;27995;-90
2022/08/28 04:45:47;;;;;;;5.90;4.10;;;;;;;19.94;100.00;97888.06;1816280;78;28113;-89
2022/08/28 04:48:13;;;;;;;7.37;4.53;;;;;;;19.93;100.00;97879.77;1822963;77;28124;-89
2022/08/28 04:50:44;;;;;;;5.83;4.00;;;;;;;19.99;100.00;97884.87;1821169;78;28162;-90
2022/08/28 04:53:23;;;;;;;5.03;4.05;;;;;;;20.05;100.00;97886.31;1818769;78;28133;-91
2022/08/28 04:56:07;;;;;;;5.15;4.40;;;;;;;20.12;100.00;97890.41;1816474;77;28107;-90
2022/08/28 04:58:41;;;;;;;5.65;3.95;;;;;;;20.18;100.00;97879.56;1811008;78;28119;-90
2022/08/28 05:01:17;;;;;;;8.60;4.35;;;;;;;20.26;100.00;97879.46;1817864;77;28146;-89
2022/08/28 05:03:53;;;;;;;10.55;4.53;;;;;;;20.34;100.00;97888.23;1818772;78;28062;-90
2022/08/28 05:06:21;;;;;;;7.45;4.28;;;;;;;20.41;100.00;97883.81;1818526;77;28097;-90
2022/08/28 05:08:48;;;;;;;5.92;3.80;;;;;;;20.49;100.00;97878.92;1808422;78;27983;-89
2022/08/28 05:11:24;;;;;;;6.22;3.87;;;;;;;20.53;100.00;97876.71;1821410;77;28139;-89
2022/08/28 05:13:58;;;;;;;10.68;3.92;;;;;;;20.60;100.00;97884.28;1810756;78;28070;-89
2022/08/28 05:16:45;;;;;;;8.80;4.15;;;;;;;20.67;100.00;97874.07;1814206;77;28104;-89
2022/08/28 05:19:13;;;;;;;7.10;4.25;;;;;;;20.75;100.00;97863.32;1813185;78;28067;-89
2022/08/28 05:21:41;;;;;;;8.40;4.53;;;;;;;20.84;100.00;97856.88;1819002;77;28133;-89
2022/08/28 05:24:08;;;;;;;7.12;4.10;;;;;;;20.92;100.00;97855.13;1816542;78;28095;-89
2022/08/28 05:26:36;;;;;;;5.97;4.80;;;;;;;21.00;100.00;97857.17;1814350;78;28146;-89
2022/08/28 05:29:06;;;;;;;6.78;3.90;;;;;;;21.09;100.00;97857.90;1817076;77;28074;-89
2022/08/28 05:31:41;;;;;;;6.72;4.37;;;;;;;21.16;100.00;97863.66;1815133;78;28137;-90
2022/08/28 05:34:14;;;;;;;8.20;4.78;;;;;;;21.23;100.00;97863.20;1813044;78;28089;-90
2022/08/28 05:36:41;;;;;;;10.95;4.55;;;;;;;21.29;100.00;97863.78;1811961;78;28089;-89
2022/08/28 05:39:10;;;;;;;10.53;5.47;;;;;;;21.34;100.00;97865.88;1818011;76;28101;-89
2022/08/28 05:41:40;;;;;;;7.85;4.97;;;;;;;21.35;100.00;97860.05;1813078;78;28151;-89
2022/08/28 05:44:09;;;;;;;6.45;4.53;;;;;;;21.38;100.00;97853.03;1808008;77;28231;-89
2022/08/28 05:46:46;;;;;;;8.83;5.17;;;;;;;21.40;100.00;97854.48;1808980;77;28090;-89
2022/08/28 05:49:20;;;;;;;6.33;4.78;;;;;;;21.47;100.00;97855.88;1812085;77;28145;-88
2022/08/28 05:51:48;;;;;;;8.15;5.12;;;;;;;21.57;100.00;97852.39;1811821;77;28086;-88
2022/08/28 05:54:20;;;;;;;8.48;5.53;;;;;;;21.63;100.00;97847.64;1817220;78;28089;-88
2022/08/28 05:56:46;;;;;;;12.15;6.15;;;;;;;21.71;100.00;97844.86;1816558;77;28080;-89
2022/08/28 05:59:18;;;;;;;6.78;5.05;;;;;;;21.77;100.00;97849.89;1813140;78;28073;-88
2022/08/28 06:01:47;;;;;;;7.85;4.83;;;;;;;21.84;100.00;97850.28;1812959;78;28033;-88
2022/08/28 06:04:21;;;;;;;9.23;4.42;;;;;;;21.87;100.00;97855.23;1817831;77;28086;-88
2022/08/28 06:06:51;;;;;;;7.58;4.80;;;;;;;21.93;100.00;97854.44;1816929;77;28071;-88
2022/08/28 06:09:21;;;;;;;7.35;5.37;;;;;;;21.99;100.00;97856.37;1807349;76;28154;-88
2022/08/28 06:11:48;;;;;;;10.25;5.47;;;;;;;22.02;100.00;97857.33;1811438;78;28008;-88
2022/08/28 06:14:17;;;;;;;9.03;5.85;;;;;;;22.08;100.00;97864.55;1815669;78;28112;-88
2022/08/28 06:16:56;;;;;;;8.60;5.70;;;;;;;22.16;100.00;97864.90;1810128;78;28164;-88
2022/08/28 06:19:28;;;;;;;8.63;6.33;;;;;;;22.18;100.00;97871.38;1813117;78;28165;-87
2022/08/28 06:21:57;;;;;;;8.80;6.55;;;;;;;22.19;100.00;97872.53;1815632;78;28121;-89
2022/08/28 06:24:24;;;;;;;7.53;5.37;;;;;;;22.22;100.00;97873.45;1822637;77;28149;-88
2022/08/28 06:26:54;;;;;;;8.05;6.15;;;;;;;22.21;100.00;97875.80;1813164;77;28436;-89
2022/08/28 06:29:29;;;;;;;8.85;5.55;;;;;;;22.28;100.00;97870.02;1809473;78;28094;-87
2022/08/28 06:31:58;;;;;;;10.82;5.80;;;;;;;22.28;100.00;97871.86;1815707;77;28079;-87
2022/08/28 06:34:26;;;;;;;8.68;4.85;;;;;;;22.33;100.00;97876.09;1816520;78;28058;-88
2022/08/28 06:36:57;;;;;;;6.92;4.28;;;;;;;22.45;100.00;97878.54;1815106;77;28104;-88
2022/08/28 06:39:22;;;;;;;6.45;4.22;;;;;;;22.55;100.00;97879.00;1811444;77;28208;-88
2022/08/28 06:41:48;;;;;;;6.97;4.53;;;;;;;22.60;100.00;97875.75;1814399;78;28085;-88
2022/08/28 06:44:19;;;;;;;7.17;4.72;;;;;;;22.64;100.00;97877.02;1788271;78;28141;-89
2022/08/28 06:46:49;;;;;;;10.63;6.15;;;;;;;22.64;100.00;97875.16;1814254;77;28071;-89
2022/08/28 06:49:16;;;;;;;9.88;5.95;;;;;;;22.68;100.00;97880.94;1815294;78;28075;-88
2022/08/28 06:51:42;;;;;;;9.68;6.20;;;;;;;22.73;100.00;97885.20;1812159;78;28110;-88
2022/08/28 06:54:10;;;;;;;10.20;6.22;;;;;;;22.81;100.00;97889.02;1810340;78;28100;-88
2022/08/28 06:56:38;;;;;;;12.33;6.22;;;;;;;22.83;100.00;97880.32;1805768;78;28080;-88
2022/08/28 06:59:07;;;;;;;12.70;6.40;;;;;;;22.83;100.00;97883.81;1817775;78;28087;-88
2022/08/28 07:01:35;;;;;;;11.48;7.03;;;;;;;22.76;100.00;97872.28;1800301;77;28261;-88
2022/08/28 07:04:09;;;;;;;12.40;6.60;;;;;;;22.81;100.00;97873.84;1760893;80;28043;-88
2022/08/28 07:06:39;;;;;;;14.53;7.20;;;;;;;22.90;100.00;97871.84;1747630;81;28063;-88
2022/08/28 07:09:09;;;;;;;8.93;6.15;;;;;;;22.99;100.00;97877.31;1750119;80;28096;-88
2022/08/28 07:11:39;;;;;;;9.90;6.72;;;;;;;23.08;100.00;97876.61;1751414;80;28116;-88
2022/08/28 07:14:17;;;;;;;13.40;6.58;;;;;;;23.04;100.00;97877.54;1757166;81;28070;-88
2022/08/28 07:16:43;;;;;;;13.88;7.45;;;;;;;23.09;100.00;97879.09;1753583;81;28145;-89
2022/08/28 07:19:12;;;;;;;13.08;7.53;;;;;;;23.19;100.00;97882.72;1728982;81;28058;-88
2022/08/28 07:21:46;;;;;;;11.48;8.20;;;;;;;23.30;100.00;97892.81;1752545;81;28094;-89
2022/08/28 07:24:19;;;;;;;10.95;7.90;;;;;;;23.37;100.00;97888.33;1756235;81;28134;-89
2022/08/28 07:26:46;;;;;;;9.55;7.10;;;;;;;23.38;100.00;97888.64;1758754;81;28107;-88
2022/08/28 07:29:13;;;;;;;8.80;6.62;;;;;;;23.46;100.00;97881.80;1749460;80;28133;-89
2022/08/28 07:31:43;;;;;;;9.80;7.33;;;;;;;23.52;100.00;97882.33;1754356;80;28056;-88
2022/08/28 07:34:10;;;;;;;9.88;6.70;;;;;;;23.51;100.00;97882.02;1743538;81;28117;-88
2022/08/28 07:36:38;;;;;;;9.43;7.17;;;;;;;23.43;100.00;97879.52;1757643;80;28144;-88
2022/08/28 07:39:14;;;;;;;11.75;6.53;;;;;;;23.40;100.00;97884.45;1754398;81;28056;-89
2022/08/28 07:41:46;;;;;;;9.63;7.67;;;;;;;23.48;100.00;97881.09;1741512;81;28122;-90
2022/08/28 07:47:02;;;;;;;11.40;7.30;;;;;;;23.69;100.00;97879.59;1746226;81;22159;-89
2022/08/28 07:49:32;;;;;;;12.40;7.70;;;;;;;23.73;100.00;97876.81;1756707;81;28094;-89
2022/08/28 07:52:12;;;;;;;11.18;7.58;;;;;;;23.75;100.00;97876.11;1753385;80;27992;-88
2022/08/28 07:54:54;;;;;;;12.82;9.13;;;;;;;23.69;100.00;97879.59;1752491;81;28064;-89
2022/08/28 07:57:23;;;;;;;12.13;8.78;;;;;;;23.71;100.00;97883.41;1754027;81;28099;-89
2022/08/28 07:59:59;;;;;;;13.03;8.75;;;;;;;23.76;100.00;97884.44;1757614;80;28063;-89
2022/08/28 08:02:25;;;;;;;12.28;8.85;;;;;;;23.90;100.00;97893.78;1767495;79;28021;-89
2022/08/28 08:04:53;;;;;;;11.43;8.65;;;;;;;23.97;100.00;97886.60;1787184;79;27987;-89
2022/08/28 08:07:19;;;;;;;12.05;8.05;;;;;;;24.01;100.00;97888.66;1785614;79;28076;-89
2022/08/28 08:09:46;;;;;;;10.78;8.10;;;;;;;24.03;100.00;97885.27;1791810;79;28070;-89
2022/08/28 08:12:13;;;;;;;12.35;8.75;;;;;;;24.01;100.00;97893.17;1785768;79;28081;-89
2022/08/28 08:14:42;;;;;;;10.28;8.48;;;;;;;23.97;100.00;97887.94;1788333;78;28078;-89
2022/08/28 08:17:09;;;;;;;11.18;8.68;;;;;;;23.99;100.00;97891.24;1792319;78;28073;-88
2022/08/28 08:19:42;;;;;;;13.48;8.90;;;;;;;24.02;100.00;97900.17;1780360;79;28088;-89
2022/08/28 08:22:29;;;;;;;11.75;8.80;;;;;;;24.03;100.00;97899.16;1792451;79;28146;-88
2022/08/28 08:24:56;;;;;;;10.53;8.05;;;;;;;24.02;100.00;97900.17;1789197;79;28142;-89
2022/08/28 08:27:27;;;;;;;15.68;8.68;;;;;;;24.04;100.00;97900.30;1792335;78;27986;-89
2022/08/28 08:29:53;;;;;;;13.78;8.28;;;;;;;24.07;100.00;97897.70;1788017;78;28126;-89
2022/08/28 08:32:19;;;;;;;10.45;7.55;;;;;;;24.10;100.00;97901.33;1766995;79;28084;-89
2022/08/28 08:34:46;;;;;;;12.68;8.70;;;;;;;24.11;100.00;97902.97;1791265;79;28081;-89
2022/08/28 08:37:14;;;;;;;12.55;8.53;;;;;;;24.11;100.00;97905.11;1782303;79;28144;-89
2022/08/28 08:39:49;;;;;;;11.93;8.33;;;;;;;24.10;100.00;97902.15;1788173;78;28069;-89
2022/08/28 08:42:29;;;;;;;11.80;8.35;;;;;;;24.08;100.00;97899.36;1789358;79;28060;-89
2022/08/28 08:45:03;;;;;;;12.68;7.85;;;;;;;24.09;100.00;97905.02;1780134;78;28083;-89
2022/08/28 08:47:45;;;;;;;12.90;9.55;;;;;;;24.12;100.00;97907.27;1786156;79;28110;-89
2022/08/28 08:50:26;;;;;;;12.53;8.80;;;;;;;24.16;100.00;97908.52;1788371;79;28061;-89
2022/08/28 08:53:29;;;;;;;12.07;8.80;;;;;;;24.20;100.00;97915.64;1785923;79;28084;-88
2022/08/28 08:55:58;;;;;;;13.98;9.43;;;;;;;24.21;100.00;97919.45;1785079;79;28091;-89
2022/08/28 08:58:37;;;;;;;16.05;8.55;;;;;;;24.22;100.00;97924.30;1789159;78;28088;-89
2022/08/28 09:01:43;;;;;;;13.65;9.55;;;;;;;24.24;100.00;97919.03;1786054;79;28162;-89
2022/08/28 09:04:26;;;;;;;13.83;8.75;;;;;;;24.26;100.00;97923.67;1810086;78;28084;-89
2022/08/28 09:07:09;;;;;;;11.70;8.83;;;;;;;24.24;100.00;97927.05;1819861;78;28081;-89
2022/08/28 09:09:45;;;;;;;16.93;8.38;;;;;;;24.23;100.00;97925.41;1807987;78;28047;-89
2022/08/28 09:12:23;;;;;;;18.23;9.08;;;;;;;24.25;100.00;97919.86;1814429;78;28046;-89
2022/08/28 09:15:06;;;;;;;12.40;8.53;;;;;;;24.29;100.00;97921.08;1815841;78;28015;-90
2022/08/28 09:17:56;;;;;;;11.15;7.70;;;;;;;24.35;100.00;97922.42;1815959;78;28073;-89
2022/08/28 09:20:33;;;;;;;10.78;6.75;;;;;;;24.41;100.00;97926.95;1814854;77;28105;-89
2022/08/28 09:23:01;;;;;;;10.68;6.58;;;;;;;24.50;100.00;97923.53;1816864;77;28088;-90
2022/08/28 09:25:58;;;;;;;9.48;6.33;;;;;;;24.54;100.00;97927.45;1814163;78;28109;-89
2022/08/28 09:28:34;;;;;;;9.80;6.10;;;;;;;24.59;100.00;97930.33;1818222;78;28079;-89
2022/08/28 09:31:18;;;;;;;8.18;6.08;;;;;;;24.62;100.00;97925.89;1813962;78;28066;-89
2022/08/28 09:33:48;;;;;;;8.55;5.65;;;;;;;24.62;100.00;97929.91;1808046;78;28066;-89
2022/08/28 09:36:32;;;;;;;10.80;5.95;;;;;;;24.58;100.00;97925.48;1815218;78;28171;-89
2022/08/28 09:39:12;;;;;;;10.65;6.37;;;;;;;24.63;100.00;97934.23;1817410;78;28086;-88
2022/08/28 09:44:55;;;;;;;10.98;5.83;;;;;;;24.77;100.00;97935.84;1811431;78;28082;-89
2022/08/28 09:47:56;;;;;;;10.28;6.40;;;;;;;24.85;100.00;97933.47;1814597;78;27996;-88
2022/08/28 09:50:40;;;;;;;10.60;6.42;;;;;;;24.87;100.00;97933.58;1816843;78;28183;-89
2022/08/28 09:53:17;;;;;;;10.20;6.15;;;;;;;24.94;100.00;97933.56;1815813;77;28155;-89
2022/08/28 09:55:56;;;;;;;11.08;6.33;;;;;;;24.98;100.00;97935.61;1809818;78;28170;-89
2022/08/28 09:58:42;;;;;;;9.70;6.47;;;;;;;25.09;100.00;97931.99;1810366;78;28091;-89
2022/08/28 10:01:40;;;;;;;10.82;6.47;;;;;;;25.23;100.00;97930.89;1817501;78;28190;-88
2022/08/28 10:04:28;;;;;;;11.75;6.20;;;;;;;25.27;100.00;97936.95;1821197;77;28069;-89
2022/08/28 10:07:02;;;;;;;11.97;6.45;;;;;;;25.31;100.00;97942.18;1822388;77;28178;-88
2022/08/28 10:09:39;;;;;;;11.00;6.80;;;;;;;25.36;100.00;97941.05;1820492;77;28098;-89
2022/08/28 10:12:26;;;;;;;15.43;7.30;;;;;;;25.37;100.00;97944.53;1826290;77;28036;-89
2022/08/28 10:14:56;;;;;;;14.38;6.97;;;;;;;25.40;100.00;97937.42;1822364;77;28060;-88
2022/08/28 10:17:26;;;;;;;11.85;6.78;;;;;;;25.44;100.00;97931.94;1830013;77;28035;-89
2022/08/28 10:20:03;;;;;;;11.55;7.45;;;;;;;25.52;100.00;97938.91;1775074;77;28012;-89
2022/08/28 10:23:09;;;;;;;12.18;6.92;;;;;;;25.59;100.00;97939.20;1716342;81;28104;-89
2022/08/28 10:26:14;;;;;;;13.83;7.35;;;;;;;25.70;100.00;97940.38;1709119;81;28177;-89
2022/08/28 10:28:59;;;;;;;10.20;7.03;;;;;;;25.80;100.00;97938.08;1823464;77;28022;-89
2022/08/28 10:31:59;;;;;;;12.80;6.95;;;;;;;25.89;100.00;97931.41;1825796;77;28166;-88
2022/08/28 10:34:58;;;;;;;11.90;7.33;;;;;;;25.95;100.00;97933.73;1824561;77;28092;-89
2022/08/28 10:37:46;;;;;;;11.80;6.72;;;;;;;26.02;100.00;97931.30;1825208;77;28089;-89
2022/08/28 10:40:24;;;;;;;10.15;7.05;;;;;;;25.93;100.00;97935.28;1826558;77;28044;-89
2022/08/28 10:42:54;;;;;;;13.60;7.60;;;;;;;25.88;100.00;97930.27;1759308;80;28184;-89
2022/08/28 10:45:24;;;;;;;11.40;7.70;;;;;;;25.84;100.00;97940.62;1821001;77;28013;-89
2022/08/28 10:47:58;;;;;;;11.75;7.33;;;;;;;25.91;100.00;97934.70;1826400;77;27991;-89
2022/08/28 10:50:31;;;;;;;12.73;7.60;;;;;;;25.98;100.00;97935.45;1824136;77;28071;-89
2022/08/28 10:53:06;;;;;;;13.38;7.28;;;;;;;26.07;100.00;97931.48;1824977;77;28194;-89
2022/08/28 10:55:57;;;;;;;14.43;7.33;;;;;;;26.12;100.00;97932.17;1832095;77;28144;-89
2022/08/28 10:58:26;;;;;;;13.35;7.87;;;;;;;26.09;100.00;97929.91;1819792;77;28080;-88
2022/08/28 11:00:58;;;;;;;11.28;7.03;;;;;;;26.06;100.00;97927.16;1820410;77;28154;-88
2022/08/28 11:03:34;;;;;;;13.68;8.75;;;;;;;26.07;100.00;97931.48;1800979;77;28099;-89
2022/08/28 11:06:13;;;;;;;15.32;8.50;;;;;;;26.14;100.00;97925.53;1762353;78;28439;-88
2022/08/28 11:08:45;;;;;;;12.20;8.15;;;;;;;26.22;100.00;97929.82;1755835;78;28022;-88
2022/08/28 11:11:36;;;;;;;10.78;7.33;;;;;;;26.28;100.00;97930.84;1756343;78;28059;-89
2022/08/28 11:14:12;;;;;;;12.65;7.65;;;;;;;26.17;100.00;97930.48;1766393;78;28063;-89
2022/08/28 11:16:41;;;;;;;13.22;8.33;;;;;;;26.26;100.00;97921.66;1763971;78;28012;-89
2022/08/28 11:19:47;;;;;;;13.43;8.35;;;;;;;26.27;100.00;97927.84;1756268;78;28091;-89
2022/08/28 11:22:17;;;;;;;14.18;8.25;;;;;;;26.28;100.00;97927.64;1755892;80;28107;-89
2022/08/28 11:25:04;;;;;;;13.53;9.00;;;;;;;26.34;100.00;97928.11;1754806;78;28102;-89
2022/08/28 11:27:34;;;;;;;15.53;8.60;;;;;;;26.40;100.00;97933.11;1768281;78;28075;-89
2022/08/28 11:30:16;;;;;;;13.98;7.90;;;;;;;26.33;100.00;97931.00;1769896;78;28135;-89
2022/08/28 11:32:56;;;;;;;15.50;8.03;;;;;;;26.29;100.00;97929.80;1771285;78;28106;-88
2022/08/28 11:35:41;;;;;;;13.48;9.20;;;;;;;26.31;100.00;97926.36;1761346;78;28061;-89
2022/08/28 11:38:57;;;;;;;14.20;8.48;;;;;;;26.35;100.00;97928.93;1762983;78;28075;-89
2022/08/28 11:41:27;;;;;;;18.37;8.73;;;;;;;26.37;100.00;97921.46;1771170;78;28111;-90
2022/08/28 11:44:21;;;;;;;12.25;9.10;;;;;;;26.39;100.00;97928.27;1761985;78;28140;-90
2022/08/28 11:46:51;;;;;;;13.08;8.55;;;;;;;26.34;100.00;97921.91;1756708;78;28068;-90
2022/08/28 11:49:30;;;;;;;15.95;9.55;;;;;;;26.28;100.00;97919.59;1768133;78;28149;-90
2022/08/28 11:52:03;;;;;;;19.73;9.83;;;;;;;26.13;100.00;97911.02;1758754;78;28051;-89
2022/08/28 11:54:40;;;;;;;13.53;9.40;;;;;;;25.96;100.00;97913.41;1763371;78;28075;-89
2022/08/28 11:57:44;;;;;;;14.05;8.80;;;;;;;25.87;100.00;97912.53;1762221;78;28091;-89
2022/08/28 12:00:26;;;;;;;16.02;9.20;;;;;;;25.66;100.00;97915.05;1752272;78;28067;-88
2022/08/28 12:03:01;;;;;;;15.50;8.98;;;;;;;25.43;100.00;97913.70;1743819;78;28079;-89
2022/08/28 12:05:34;;;;;;;15.20;9.48;;;;;;;25.35;100.00;97913.13;1750506;81;28069;-89